Time;durP1;ratioP1;P1;durP2;ratioP2;P2;SDS_P1;SDS_P2;PMS_P1;PMS_P2;Temp;Humidity;BMP_temperature;BMP_pressure;BME280_temperature;BME280_humidity;BME280_pressure;Samples;Min_cycle;Max_cycle;Signal;HPM_P1;HPM_P2
2021/12/09 00:00:23;;;;;;;3.47;1.77;;;;;;;;;;5070265;28;20084;-68
2021/12/09 00:02:49;;;;;;;4.53;1.70;;;;;;;;;;5069854;28;20044;-68
2021/12/09 00:05:16;;;;;;;4.90;2.05;;;;;;;;;;5070112;28;20162;-68
2021/12/09 00:07:43;;;;;;;5.85;1.98;;;;;;;;;;5069316;28;20063;-68
2021/12/09 00:10:10;;;;;;;4.40;1.55;;;;;;;;;;5069488;28;20067;-68
2021/12/09 00:12:36;;;;;;;2.97;1.50;;;;;;;;;;5069404;28;20049;-68
2021/12/09 00:15:02;;;;;;;4.72;1.65;;;;;;;;;;5069571;28;20131;-68
2021/12/09 00:17:28;;;;;;;4.78;1.50;;;;;;;;;;5068789;28;20482;-68
2021/12/09 00:19:54;;;;;;;3.17;1.67;;;;;;;;;;5068870;28;20049;-68
2021/12/09 00:22:20;;;;;;;6.82;1.90;;;;;;;;;;5068639;28;20090;-69
2021/12/09 00:24:46;;;;;;;2.45;1.40;;;;;;;;;;5069174;28;20044;-68
2021/12/09 00:27:12;;;;;;;3.60;1.52;;;;;;;;;;5068785;28;20036;-66
2021/12/09 00:29:38;;;;;;;4.47;1.60;;;;;;;;;;5068884;28;20040;-68
2021/12/09 00:32:05;;;;;;;4.97;1.50;;;;;;;;;;5069595;28;20045;-69
2021/12/09 00:34:34;;;;;;;6.65;1.77;;;;;;;;;;5068828;28;20101;-69
2021/12/09 00:37:14;;;;;;;3.83;1.42;;;;;;;;;;5069458;28;20052;-66
2021/12/09 00:39:41;;;;;;;3.50;1.80;;;;;;;;;;5068455;28;20044;-67
2021/12/09 00:42:08;;;;;;;3.70;1.45;;;;;;;;;;5069607;28;20048;-69
2021/12/09 00:44:34;;;;;;;4.30;2.10;;;;;;;;;;5069044;28;20480;-66
2021/12/09 00:47:01;;;;;;;4.30;1.77;;;;;;;;;;5069138;28;20499;-66
2021/12/09 00:49:30;;;;;;;3.03;1.52;;;;;;;;;;5068894;28;20137;-68
2021/12/09 00:51:56;;;;;;;2.40;1.50;;;;;;;;;;5069701;28;20060;-69
2021/12/09 00:54:22;;;;;;;3.22;1.67;;;;;;;;;;5069208;28;20041;-69
2021/12/09 00:56:48;;;;;;;2.58;1.30;;;;;;;;;;5068770;28;20078;-67
2021/12/09 00:59:14;;;;;;;3.88;1.77;;;;;;;;;;5069641;28;20044;-66
2021/12/09 01:01:40;;;;;;;3.78;1.50;;;;;;;;;;5068589;28;20418;-67
2021/12/09 01:04:06;;;;;;;3.42;1.73;;;;;;;;;;5069507;28;20475;-67
2021/12/09 01:06:32;;;;;;;4.88;1.95;;;;;;;;;;5068658;28;20416;-67
2021/12/09 01:08:58;;;;;;;3.83;1.75;;;;;;;;;;5069159;28;20494;-67
2021/12/09 01:11:25;;;;;;;3.65;1.40;;;;;;;;;;5069318;28;20049;-67
2021/12/09 01:13:51;;;;;;;4.50;2.28;;;;;;;;;;5068695;28;20055;-67
2021/12/09 01:16:17;;;;;;;4.05;1.65;;;;;;;;;;5068597;28;20588;-67
2021/12/09 01:18:43;;;;;;;4.60;1.70;;;;;;;;;;5068256;28;20040;-68
2021/12/09 01:21:10;;;;;;;3.72;1.67;;;;;;;;;;5066529;28;20076;-67
2021/12/09 01:23:36;;;;;;;2.53;1.38;;;;;;;;;;5067836;28;20045;-67
2021/12/09 01:26:04;;;;;;;3.20;1.30;;;;;;;;;;5068186;28;20048;-67
2021/12/09 01:28:35;;;;;;;2.85;1.50;;;;;;;;;;5067750;28;20052;-67
2021/12/09 01:31:04;;;;;;;3.90;1.60;;;;;;;;;;5071111;28;20084;-68
2021/12/09 01:33:31;;;;;;;2.50;1.38;;;;;;;;;;5072581;28;20406;-67
2021/12/09 01:35:57;;;;;;;4.03;1.50;;;;;;;;;;5072816;28;20613;-68
2021/12/09 01:38:27;;;;;;;3.00;1.50;;;;;;;;;;5072948;28;20391;-67
2021/12/09 01:40:53;;;;;;;2.55;1.50;;;;;;;;;;5071621;28;20077;-68
2021/12/09 01:43:19;;;;;;;2.70;1.50;;;;;;;;;;5072716;28;20048;-67
2021/12/09 01:45:45;;;;;;;2.85;1.48;;;;;;;;;;5073090;28;20131;-68
2021/12/09 01:48:11;;;;;;;2.92;1.42;;;;;;;;;;5072303;28;20072;-68
2021/12/09 01:50:37;;;;;;;3.80;1.73;;;;;;;;;;5072180;28;20044;-68
2021/12/09 01:53:04;;;;;;;5.50;1.92;;;;;;;;;;5072152;28;20056;-68
2021/12/09 01:55:31;;;;;;;3.20;1.38;;;;;;;;;;5071759;28;20041;-68
2021/12/09 01:57:57;;;;;;;3.13;1.63;;;;;;;;;;5072029;28;20052;-68
2021/12/09 02:00:25;;;;;;;2.80;1.63;;;;;;;;;;5070848;28;20048;-68
2021/12/09 02:02:51;;;;;;;4.20;1.80;;;;;;;;;;5071386;28;20044;-68
2021/12/09 02:05:18;;;;;;;2.67;1.40;;;;;;;;;;5071816;28;20142;-67
2021/12/09 02:07:44;;;;;;;2.97;1.33;;;;;;;;;;5071741;28;20131;-68
2021/12/09 02:10:11;;;;;;;3.13;1.27;;;;;;;;;;5071774;28;20052;-67
2021/12/09 02:12:37;;;;;;;2.15;1.20;;;;;;;;;;5070853;28;20047;-67
2021/12/09 02:15:04;;;;;;;3.72;1.60;;;;;;;;;;5071661;28;20090;-67
2021/12/09 02:17:31;;;;;;;2.67;1.40;;;;;;;;;;5071435;28;20040;-68
2021/12/09 02:19:58;;;;;;;2.78;1.40;;;;;;;;;;5071668;28;20056;-67
2021/12/09 02:22:25;;;;;;;4.03;1.50;;;;;;;;;;5071269;28;20048;-67
2021/12/09 02:24:55;;;;;;;2.42;1.40;;;;;;;;;;5071575;28;20049;-67
2021/12/09 02:27:22;;;;;;;2.88;1.40;;;;;;;;;;5070102;28;20044;-67
2021/12/09 02:29:48;;;;;;;3.15;1.10;;;;;;;;;;5071270;28;20123;-67
2021/12/09 02:32:14;;;;;;;2.53;1.20;;;;;;;;;;5071503;28;20036;-67
2021/12/09 02:34:40;;;;;;;2.80;1.13;;;;;;;;;;5070287;28;20352;-68
2021/12/09 02:37:09;;;;;;;13.95;1.70;;;;;;;;;;5071493;28;20037;-68
2021/12/09 02:39:35;;;;;;;4.55;1.55;;;;;;;;;;5070619;28;20102;-68
2021/12/09 02:42:02;;;;;;;3.33;1.40;;;;;;;;;;5070606;28;20475;-68
2021/12/09 02:44:29;;;;;;;6.95;1.63;;;;;;;;;;5070925;28;20051;-68
2021/12/09 02:46:56;;;;;;;4.82;1.63;;;;;;;;;;5070991;28;20494;-68
2021/12/09 02:49:23;;;;;;;3.58;1.60;;;;;;;;;;5071115;28;20099;-68
2021/12/09 02:51:50;;;;;;;3.58;1.65;;;;;;;;;;5071252;28;20494;-68
2021/12/09 02:54:17;;;;;;;4.63;1.70;;;;;;;;;;5071759;28;20045;-68
2021/12/09 02:56:44;;;;;;;5.20;1.70;;;;;;;;;;5070608;28;20473;-68
2021/12/09 02:59:10;;;;;;;2.35;1.33;;;;;;;;;;5071284;28;20444;-68
2021/12/09 03:01:38;;;;;;;4.72;1.40;;;;;;;;;;5071130;28;20507;-68
2021/12/09 03:04:05;;;;;;;2.17;1.38;;;;;;;;;;5070495;28;20089;-68
2021/12/09 03:06:36;;;;;;;4.10;1.80;;;;;;;;;;5071174;28;20052;-68
2021/12/09 03:09:10;;;;;;;2.47;1.42;;;;;;;;;;5070115;28;20056;-68
2021/12/09 03:11:36;;;;;;;3.95;1.67;;;;;;;;;;5070983;28;20076;-68
2021/12/09 03:14:03;;;;;;;5.07;1.50;;;;;;;;;;5071525;28;20045;-68
2021/12/09 03:16:29;;;;;;;2.80;1.42;;;;;;;;;;5070668;28;20040;-68
2021/12/09 03:18:57;;;;;;;3.25;1.40;;;;;;;;;;5071840;28;20040;-68
2021/12/09 03:21:27;;;;;;;2.33;1.40;;;;;;;;;;5069610;28;20056;-69
2021/12/09 03:23:53;;;;;;;;;;;;;;;;;;5070472;28;20037;-68
2021/12/09 03:26:25;;;;;;;2.53;1.08;;;;;;;;;;5070716;28;19974;-68
2021/12/09 03:28:52;;;;;;;3.53;1.73;;;;;;;;;;5070444;28;20503;-68
2021/12/09 03:31:18;;;;;;;5.32;1.65;;;;;;;;;;5071145;28;20098;-68
2021/12/09 03:33:44;;;;;;;3.92;1.55;;;;;;;;;;5070469;28;20339;-68
2021/12/09 03:36:10;;;;;;;3.65;1.58;;;;;;;;;;5070523;28;20089;-68
2021/12/09 03:38:37;;;;;;;4.50;1.63;;;;;;;;;;5070504;28;20147;-68
2021/12/09 03:41:04;;;;;;;2.65;1.42;;;;;;;;;;5070125;28;20040;-68
2021/12/09 03:43:31;;;;;;;2.28;1.20;;;;;;;;;;5069845;28;20044;-68
2021/12/09 03:45:58;;;;;;;2.80;1.23;;;;;;;;;;5070373;28;20040;-68
2021/12/09 03:48:26;;;;;;;2.85;1.55;;;;;;;;;;5070144;28;20041;-68
2021/12/09 03:50:53;;;;;;;3.72;1.73;;;;;;;;;;5070008;28;20044;-68
2021/12/09 03:53:19;;;;;;;3.72;1.40;;;;;;;;;;5069568;28;20826;-68
2021/12/09 03:55:45;;;;;;;3.13;1.60;;;;;;;;;;5070300;28;20520;-68
2021/12/09 03:58:11;;;;;;;3.00;1.38;;;;;;;;;;5070005;28;20421;-68
2021/12/09 04:00:37;;;;;;;2.78;1.25;;;;;;;;;;5069584;28;20041;-68
2021/12/09 04:03:04;;;;;;;3.42;1.33;;;;;;;;;;5070107;28;20125;-68
2021/12/09 04:05:30;;;;;;;2.33;1.27;;;;;;;;;;5070256;28;20055;-68
2021/12/09 04:07:56;;;;;;;2.28;1.45;;;;;;;;;;5069928;28;20060;-68
2021/12/09 04:10:22;;;;;;;1.92;1.13;;;;;;;;;;5069682;28;20048;-68
2021/12/09 04:12:48;;;;;;;3.67;1.65;;;;;;;;;;5069797;28;20066;-68
2021/12/09 04:15:14;;;;;;;2.88;1.40;;;;;;;;;;5069937;28;20045;-68
2021/12/09 04:17:40;;;;;;;3.30;1.38;;;;;;;;;;5069961;28;20048;-67
2021/12/09 04:20:08;;;;;;;6.55;1.60;;;;;;;;;;5069414;28;20099;-68
2021/12/09 04:22:34;;;;;;;3.00;1.40;;;;;;;;;;5069108;28;20570;-68
2021/12/09 04:25:01;;;;;;;4.18;1.50;;;;;;;;;;5069939;28;20083;-68
2021/12/09 04:27:27;;;;;;;3.30;1.38;;;;;;;;;;5069405;28;20490;-67
2021/12/09 04:29:54;;;;;;;1.77;1.10;;;;;;;;;;5069440;28;20052;-67
2021/12/09 04:32:20;;;;;;;4.72;1.60;;;;;;;;;;5069677;28;20068;-68
2021/12/09 04:34:47;;;;;;;2.33;1.30;;;;;;;;;;5069173;28;20044;-68
2021/12/09 04:37:13;;;;;;;3.10;1.27;;;;;;;;;;5069849;28;20048;-68
2021/12/09 04:39:39;;;;;;;3.95;1.48;;;;;;;;;;5069399;28;20183;-68
2021/12/09 04:42:06;;;;;;;2.88;1.30;;;;;;;;;;5069745;28;20052;-68
2021/12/09 04:44:32;;;;;;;3.08;1.35;;;;;;;;;;5069166;28;20032;-68
2021/12/09 04:47:00;;;;;;;1.92;1.15;;;;;;;;;;5068667;28;20052;-68
2021/12/09 04:49:27;;;;;;;4.13;1.77;;;;;;;;;;5068770;28;20049;-68
2021/12/09 04:51:53;;;;;;;2.92;1.23;;;;;;;;;;5069536;28;20070;-68
2021/12/09 04:54:19;;;;;;;2.85;1.33;;;;;;;;;;5069062;28;20084;-68
2021/12/09 04:56:46;;;;;;;2.95;1.13;;;;;;;;;;5069421;28;20044;-68
2021/12/09 04:59:12;;;;;;;2.45;1.23;;;;;;;;;;5068882;28;20080;-68
2021/12/09 05:01:38;;;;;;;1.90;1.17;;;;;;;;;;5068932;28;20036;-68
2021/12/09 05:04:05;;;;;;;3.05;1.50;;;;;;;;;;5069129;28;20059;-68
2021/12/09 05:06:31;;;;;;;2.97;1.30;;;;;;;;;;5068943;28;20047;-68
2021/12/09 05:09:04;;;;;;;4.00;1.30;;;;;;;;;;5068197;28;20373;-68
2021/12/09 05:11:49;;;;;;;2.28;1.10;;;;;;;;;;5068512;28;20052;-68
2021/12/09 05:14:16;;;;;;;2.67;1.42;;;;;;;;;;5069509;28;20044;-68
2021/12/09 05:16:43;;;;;;;2.75;1.15;;;;;;;;;;5068003;28;20041;-68
2021/12/09 05:19:09;;;;;;;2.45;1.20;;;;;;;;;;5068613;28;20401;-68
2021/12/09 05:21:37;;;;;;;2.50;1.23;;;;;;;;;;5068849;28;20118;-68
2021/12/09 05:24:11;;;;;;;2.10;1.40;;;;;;;;;;5069316;28;20141;-68
2021/12/09 05:26:44;;;;;;;2.95;1.70;;;;;;;;;;5068928;28;20067;-68
2021/12/09 05:29:10;;;;;;;2.20;1.17;;;;;;;;;;5068739;28;20052;-69
2021/12/09 05:34:21;;;;;;;3.25;1.30;;;;;;;;;;5069127;28;20525;-69
2021/12/09 05:36:47;;;;;;;2.47;1.30;;;;;;;;;;5068737;28;20516;-69
2021/12/09 05:39:14;;;;;;;2.83;1.25;;;;;;;;;;5068578;28;20083;-69
2021/12/09 05:41:40;;;;;;;3.60;1.25;;;;;;;;;;5068964;28;20410;-69
2021/12/09 05:44:07;;;;;;;2.72;1.10;;;;;;;;;;5068449;28;20045;-69
2021/12/09 05:46:35;;;;;;;2.78;1.02;;;;;;;;;;5068601;28;20070;-69
2021/12/09 05:49:01;;;;;;;1.67;1.10;;;;;;;;;;5068553;28;20486;-69
2021/12/09 05:51:27;;;;;;;1.65;1.08;;;;;;;;;;5068878;28;20047;-69
2021/12/09 05:53:55;;;;;;;6.85;1.10;;;;;;;;;;5068876;28;20051;-70
2021/12/09 05:56:21;;;;;;;1.63;1.00;;;;;;;;;;5067879;28;20127;-67
2021/12/09 05:58:47;;;;;;;3.80;1.25;;;;;;;;;;5068775;28;20418;-69
2021/12/09 06:01:14;;;;;;;3.08;1.30;;;;;;;;;;5068771;28;20051;-70
2021/12/09 06:03:40;;;;;;;6.00;1.48;;;;;;;;;;5068224;28;20075;-69
2021/12/09 06:06:07;;;;;;;3.67;1.50;;;;;;;;;;5068834;28;20040;-68
2021/12/09 06:08:36;;;;;;;6.22;1.42;;;;;;;;;;5067757;28;20326;-68
2021/12/09 06:11:03;;;;;;;4.80;2.13;;;;;;;;;;5068199;28;20053;-68
2021/12/09 06:13:30;;;;;;;2.63;1.40;;;;;;;;;;5067620;28;20053;-68
2021/12/09 06:15:57;;;;;;;2.53;1.10;;;;;;;;;;5069066;28;20052;-68
2021/12/09 06:18:23;;;;;;;3.10;1.60;;;;;;;;;;5071850;28;20123;-68
2021/12/09 06:20:49;;;;;;;5.10;1.30;;;;;;;;;;5070994;28;20441;-68
2021/12/09 06:23:15;;;;;;;3.33;1.30;;;;;;;;;;5071514;28;20056;-68
2021/12/09 06:25:41;;;;;;;4.65;1.17;;;;;;;;;;5071132;28;20067;-68
2021/12/09 06:28:07;;;;;;;4.65;1.65;;;;;;;;;;5072264;28;20449;-68
2021/12/09 06:30:33;;;;;;;2.03;1.13;;;;;;;;;;5071821;28;20142;-68
2021/12/09 06:33:01;;;;;;;4.07;1.15;;;;;;;;;;5071507;28;20135;-68
2021/12/09 06:35:27;;;;;;;2.72;1.30;;;;;;;;;;5072022;28;20053;-68
2021/12/09 06:37:56;;;;;;;3.10;1.60;;;;;;;;;;5071039;28;20052;-68
2021/12/09 06:40:22;;;;;;;5.68;1.55;;;;;;;;;;5071509;28;20059;-68
2021/12/09 06:42:50;;;;;;;3.00;1.30;;;;;;;;;;5071537;28;20406;-69
2021/12/09 06:45:16;;;;;;;6.43;1.20;;;;;;;;;;5070372;28;20044;-69
2021/12/09 06:47:42;;;;;;;6.20;1.38;;;;;;;;;;5071979;28;20087;-68
2021/12/09 06:50:10;;;;;;;6.68;2.00;;;;;;;;;;5071115;28;20055;-68
2021/12/09 06:52:36;;;;;;;6.07;1.60;;;;;;;;;;5070811;28;20064;-68
2021/12/09 06:55:02;;;;;;;6.60;1.40;;;;;;;;;;5071323;28;20051;-68
2021/12/09 06:57:29;;;;;;;3.97;1.60;;;;;;;;;;5071543;28;20040;-67
2021/12/09 06:59:56;;;;;;;5.45;1.90;;;;;;;;;;5071277;28;20052;-67
2021/12/09 07:02:22;;;;;;;4.47;1.17;;;;;;;;;;5070915;28;20131;-67
2021/12/09 07:04:48;;;;;;;3.80;1.48;;;;;;;;;;5070686;28;20171;-67
2021/12/09 07:07:14;;;;;;;3.00;1.63;;;;;;;;;;5071456;28;20045;-68
2021/12/09 07:09:40;;;;;;;3.33;1.50;;;;;;;;;;5070273;28;20067;-66
2021/12/09 07:12:07;;;;;;;2.83;1.52;;;;;;;;;;5070948;28;20040;-66
2021/12/09 07:14:34;;;;;;;3.63;1.40;;;;;;;;;;5070246;28;20101;-68
2021/12/09 07:17:00;;;;;;;3.53;1.50;;;;;;;;;;5071143;28;20149;-66
2021/12/09 07:19:26;;;;;;;3.72;1.40;;;;;;;;;;5070975;28;20384;-67
2021/12/09 07:21:52;;;;;;;3.33;1.65;;;;;;;;;;5070332;28;20044;-66
2021/12/09 07:24:18;;;;;;;4.15;1.60;;;;;;;;;;5071006;28;20121;-66
2021/12/09 07:26:45;;;;;;;6.13;2.10;;;;;;;;;;5070781;28;20097;-67
2021/12/09 07:29:12;;;;;;;5.18;1.55;;;;;;;;;;5071164;28;20367;-67
2021/12/09 07:31:38;;;;;;;6.18;2.10;;;;;;;;;;5063685;28;20131;-67
2021/12/09 07:34:04;;;;;;;3.08;1.80;;;;;;;;;;5070589;28;20044;-67
2021/12/09 07:36:30;;;;;;;7.35;1.90;;;;;;;;;;5069175;28;20048;-66
2021/12/09 07:38:56;;;;;;;5.25;2.30;;;;;;;;;;5068731;28;20044;-67
2021/12/09 07:41:24;;;;;;;5.78;2.30;;;;;;;;;;5052853;28;20471;-67
2021/12/09 07:43:50;;;;;;;4.70;1.92;;;;;;;;;;5070140;28;20048;-66
2021/12/09 07:46:17;;;;;;;8.32;2.25;;;;;;;;;;5069188;28;20044;-67
2021/12/09 07:48:43;;;;;;;4.88;1.90;;;;;;;;;;5069574;28;20466;-67
2021/12/09 07:51:09;;;;;;;7.88;2.08;;;;;;;;;;5069879;28;20090;-67
2021/12/09 07:53:35;;;;;;;4.53;1.90;;;;;;;;;;5069881;28;20044;-66
2021/12/09 07:56:01;;;;;;;5.55;2.38;;;;;;;;;;5069938;28;20410;-67
2021/12/09 07:58:28;;;;;;;4.63;1.90;;;;;;;;;;5069901;28;20486;-67
2021/12/09 08:00:54;;;;;;;4.93;1.92;;;;;;;;;;5069626;28;20541;-66
2021/12/09 08:03:21;;;;;;;3.40;1.65;;;;;;;;;;5068725;28;20050;-67
2021/12/09 08:05:47;;;;;;;5.15;2.20;;;;;;;;;;5069360;28;20052;-67
2021/12/09 08:08:14;;;;;;;6.07;2.17;;;;;;;;;;5070201;28;20144;-67
2021/12/09 08:10:40;;;;;;;7.25;2.10;;;;;;;;;;5068886;28;20426;-70
2021/12/09 08:13:08;;;;;;;7.97;2.30;;;;;;;;;;5070351;28;20131;-66
2021/12/09 08:15:37;;;;;;;5.80;2.25;;;;;;;;;;5069753;28;20083;-65
2021/12/09 08:18:25;;;;;;;4.40;1.92;;;;;;;;;;5068235;28;20048;-67
2021/12/09 08:20:51;;;;;;;5.75;1.70;;;;;;;;;;5069768;28;20053;-65
2021/12/09 08:23:18;;;;;;;3.88;2.00;;;;;;;;;;5068586;28;20044;-65
2021/12/09 08:25:44;;;;;;;6.30;2.15;;;;;;;;;;5069262;28;20072;-66
2021/12/09 08:28:11;;;;;;;6.30;1.98;;;;;;;;;;5068942;28;20529;-65
2021/12/09 08:30:38;;;;;;;6.28;2.20;;;;;;;;;;5069610;28;20040;-67
2021/12/09 08:33:05;;;;;;;4.53;2.25;;;;;;;;;;5068114;28;20526;-67
2021/12/09 08:35:31;;;;;;;10.05;2.35;;;;;;;;;;5068973;28;20575;-67
2021/12/09 08:37:58;;;;;;;16.67;3.03;;;;;;;;;;5069071;28;20496;-69
2021/12/09 08:40:25;;;;;;;6.80;1.95;;;;;;;;;;5069303;28;20041;-69
2021/12/09 08:42:51;;;;;;;9.77;3.20;;;;;;;;;;5069305;28;20051;-70
2021/12/09 08:45:18;;;;;;;8.82;2.17;;;;;;;;;;5069271;28;20089;-69
2021/12/09 08:47:44;;;;;;;8.30;2.70;;;;;;;;;;5068746;28;20066;-69
2021/12/09 08:50:12;;;;;;;6.55;1.92;;;;;;;;;;5068907;28;20045;-69
2021/12/09 08:52:38;;;;;;;8.15;2.60;;;;;;;;;;5067348;28;20046;-70
2021/12/09 08:55:05;;;;;;;9.43;2.97;;;;;;;;;;5068335;28;20494;-71
2021/12/09 08:57:32;;;;;;;8.77;2.33;;;;;;;;;;5068884;28;20048;-70
2021/12/09 08:59:58;;;;;;;7.10;2.10;;;;;;;;;;5067268;28;20094;-67
2021/12/09 09:02:24;;;;;;;6.13;2.25;;;;;;;;;;5068626;28;20473;-72
2021/12/09 09:04:50;;;;;;;6.78;2.25;;;;;;;;;;5042514;28;20122;-70
2021/12/09 09:07:17;;;;;;;5.80;2.35;;;;;;;;;;5059335;28;20076;-69
2021/12/09 09:09:43;;;;;;;5.68;2.08;;;;;;;;;;5061637;28;20143;-68
2021/12/09 09:12:10;;;;;;;6.82;2.40;;;;;;;;;;5068205;28;20044;-68
2021/12/09 09:14:36;;;;;;;7.03;2.47;;;;;;;;;;5068801;28;20923;-68
2021/12/09 09:17:03;;;;;;;5.07;2.00;;;;;;;;;;5068835;28;20043;-68
2021/12/09 09:19:29;;;;;;;4.35;1.90;;;;;;;;;;5068770;28;20032;-69
2021/12/09 09:21:56;;;;;;;7.30;2.38;;;;;;;;;;5067083;28;20041;-68
2021/12/09 09:24:22;;;;;;;6.53;2.30;;;;;;;;;;5066604;28;20044;-69
2021/12/09 09:26:48;;;;;;;5.88;2.13;;;;;;;;;;5065879;28;20055;-69
2021/12/09 09:29:14;;;;;;;5.60;2.10;;;;;;;;;;5065259;28;20055;-68
2021/12/09 09:31:42;;;;;;;5.13;2.30;;;;;;;;;;5066161;28;20044;-68
2021/12/09 09:34:10;;;;;;;7.88;2.40;;;;;;;;;;5064500;28;20061;-69
2021/12/09 09:36:39;;;;;;;4.47;1.70;;;;;;;;;;5066228;28;20399;-68
2021/12/09 09:39:17;;;;;;;;;;;;;;;;;;5068058;28;20049;-69
2021/12/09 09:41:45;;;;;;;5.95;2.20;;;;;;;;;;5067644;28;19920;-68
2021/12/09 09:44:17;;;;;;;6.57;2.20;;;;;;;;;;5066835;28;20040;-68
2021/12/09 09:46:44;;;;;;;5.43;1.73;;;;;;;;;;5066370;28;20094;-68
2021/12/09 09:49:10;;;;;;;5.95;2.10;;;;;;;;;;5067830;28;20513;-69
2021/12/09 09:51:37;;;;;;;5.60;1.92;;;;;;;;;;5070106;28;20044;-71
2021/12/09 09:54:04;;;;;;;6.05;2.05;;;;;;;;;;5070433;28;20486;-68
2021/12/09 09:56:32;;;;;;;5.90;2.40;;;;;;;;;;5070102;28;20059;-66
2021/12/09 09:59:00;;;;;;;5.65;2.42;;;;;;;;;;5071680;28;20447;-68
2021/12/09 10:01:29;;;;;;;5.97;2.10;;;;;;;;;;5071643;28;20036;-68
2021/12/09 10:04:09;;;;;;;4.07;1.70;;;;;;;;;;5071173;28;20074;-67
2021/12/09 10:06:35;;;;;;;5.40;2.08;;;;;;;;;;5052752;28;20151;-73
2021/12/09 10:09:02;;;;;;;4.85;1.98;;;;;;;;;;5068538;28;20064;-67
2021/12/09 10:11:28;;;;;;;4.15;2.00;;;;;;;;;;5071815;28;20080;-66
2021/12/09 10:13:54;;;;;;;4.60;1.90;;;;;;;;;;5072092;28;20053;-66
2021/12/09 10:16:21;;;;;;;3.50;1.83;;;;;;;;;;5071615;28;20040;-65
2021/12/09 10:18:49;;;;;;;5.13;2.20;;;;;;;;;;5071418;28;20135;-65
2021/12/09 10:21:23;;;;;;;5.53;1.88;;;;;;;;;;5071585;28;20033;-67
2021/12/09 10:23:57;;;;;;;4.63;1.98;;;;;;;;;;5070618;28;20044;-65
2021/12/09 10:26:28;;;;;;;6.05;1.85;;;;;;;;;;5070228;28;20454;-67
2021/12/09 10:28:55;;;;;;;4.82;2.08;;;;;;;;;;5071622;28;20441;-70
2021/12/09 10:31:23;;;;;;;5.53;1.73;;;;;;;;;;5071705;28;20071;-67
2021/12/09 10:34:01;;;;;;;3.10;1.87;;;;;;;;;;5071404;28;20421;-69
2021/12/09 10:36:46;;;;;;;4.38;2.25;;;;;;;;;;5070352;28;20302;-72
2021/12/09 10:39:23;;;;;;;4.45;2.22;;;;;;;;;;5054402;28;20436;-66
2021/12/09 10:41:49;;;;;;;4.68;1.70;;;;;;;;;;5067450;28;20391;-67
2021/12/09 10:44:15;;;;;;;3.58;1.67;;;;;;;;;;5067802;28;20044;-70
2021/12/09 10:46:55;;;;;;;4.75;1.85;;;;;;;;;;5071119;28;20048;-67
2021/12/09 10:49:23;;;;;;;5.47;1.83;;;;;;;;;;5071429;28;20071;-66
2021/12/09 10:51:57;;;;;;;4.57;2.03;;;;;;;;;;5070931;28;20040;-65
2021/12/09 10:54:34;;;;;;;4.53;1.83;;;;;;;;;;5069266;28;20132;-65
2021/12/09 10:57:20;;;;;;;4.25;1.73;;;;;;;;;;5053809;28;20516;-65
2021/12/09 10:59:46;;;;;;;5.68;2.00;;;;;;;;;;5069997;28;20414;-65
2021/12/09 11:02:13;;;;;;;3.60;1.88;;;;;;;;;;5070648;28;20448;-66
2021/12/09 11:04:39;;;;;;;4.55;1.70;;;;;;;;;;5069466;28;20446;-66
2021/12/09 11:07:26;;;;;;;3.65;1.70;;;;;;;;;;5071685;28;20422;-66
2021/12/09 11:10:12;;;;;;;4.13;1.90;;;;;;;;;;5070589;28;20065;-65
2021/12/09 11:12:38;;;;;;;4.97;2.20;;;;;;;;;;5070041;28;20536;-66
2021/12/09 11:15:04;;;;;;;5.95;2.08;;;;;;;;;;5070206;28;20538;-66
2021/12/09 11:17:41;;;;;;;4.78;2.25;;;;;;;;;;5069408;28;20044;-65
2021/12/09 11:20:07;;;;;;;4.68;1.98;;;;;;;;;;5070033;28;20044;-66
2021/12/09 11:22:36;;;;;;;4.07;2.33;;;;;;;;;;5070232;28;20399;-68
2021/12/09 11:25:05;;;;;;;4.95;2.28;;;;;;;;;;5066204;28;20044;-68
2021/12/09 11:27:31;;;;;;;5.65;2.35;;;;;;;;;;5070288;28;20491;-73
2021/12/09 11:30:14;;;;;;;4.22;2.00;;;;;;;;;;5069767;28;20097;-71
2021/12/09 11:32:56;;;;;;;6.35;2.40;;;;;;;;;;5069445;28;20060;-70
2021/12/09 11:35:27;;;;;;;6.32;2.50;;;;;;;;;;5069999;28;20119;-71
2021/12/09 11:40:39;;;;;;;5.13;2.13;;;;;;;;;;5070561;28;20060;-70
2021/12/09 11:43:06;;;;;;;5.60;2.72;;;;;;;;;;5070082;28;21254;-70
2021/12/09 11:45:34;;;;;;;5.78;2.10;;;;;;;;;;5069964;28;20447;-69
2021/12/09 11:48:01;;;;;;;4.95;2.00;;;;;;;;;;5070531;28;20036;-68
2021/12/09 11:50:28;;;;;;;5.30;2.08;;;;;;;;;;5070040;28;20517;-69
2021/12/09 11:52:55;;;;;;;4.50;2.30;;;;;;;;;;5069218;28;20041;-70
2021/12/09 11:55:27;;;;;;;6.10;2.67;;;;;;;;;;5070210;28;20097;-71
2021/12/09 11:58:02;;;;;;;5.70;2.03;;;;;;;;;;5051779;28;20055;-70
2021/12/09 12:14:59;;;;;;;5.30;2.13;;;;;;;;;;5067045;28;20132;-72
2021/12/09 12:17:42;;;;;;;5.43;2.60;;;;;;;;;;5067461;28;20417;-71
2021/12/09 12:25:36;;;;;;;4.88;2.13;;;;;;;;;;5063771;28;20749;-71
2021/12/09 12:28:14;;;;;;;;;;;;;;;;;;5069171;28;20050;-71
2021/12/09 12:31:15;;;;;;;5.55;2.03;;;;;;;;;;5068941;28;19986;-72
2021/12/09 12:39:31;;;;;;;18.42;3.42;;;;;;;;;;5068774;28;20155;-73
2021/12/09 12:41:59;;;;;;;17.17;2.80;;;;;;;;;;5067730;28;20533;-73
2021/12/09 12:44:25;;;;;;;10.85;3.50;;;;;;;;;;5050776;28;20048;-76
2021/12/09 12:47:09;;;;;;;12.13;2.58;;;;;;;;;;5069058;28;20099;-75
2021/12/09 12:49:37;;;;;;;14.07;2.78;;;;;;;;;;5068988;28;20402;-73
2021/12/09 12:52:17;;;;;;;7.43;2.55;;;;;;;;;;5051058;28;20051;-75
2021/12/09 12:54:56;;;;;;;7.13;2.65;;;;;;;;;;5068939;28;20465;-74
2021/12/09 12:57:33;;;;;;;9.80;3.10;;;;;;;;;;5069463;28;20051;-75
2021/12/09 13:00:02;;;;;;;8.60;2.55;;;;;;;;;;5069151;28;20094;-75
2021/12/09 13:13:08;;;;;;;9.18;2.60;;;;;;;;;;5067837;28;20584;-75
2021/12/09 13:15:49;;;;;;;4.87;2.10;;;;;;;;;;5068276;28;20052;-73
2021/12/09 13:18:39;;;;;;;6.60;2.42;;;;;;;;;;5069092;28;20083;-77
2021/12/09 13:21:24;;;;;;;8.23;2.78;;;;;;;;;;5067311;28;20135;-74
2021/12/09 13:24:10;;;;;;;10.63;2.60;;;;;;;;;;5068844;28;20141;-76
2021/12/09 13:26:56;;;;;;;5.60;2.42;;;;;;;;;;5071570;28;20061;-74
2021/12/09 13:29:36;;;;;;;7.03;3.17;;;;;;;;;;5070926;28;20119;-75
2021/12/09 13:32:19;;;;;;;8.30;2.55;;;;;;;;;;5071124;28;20050;-75
2021/12/09 13:35:02;;;;;;;5.82;2.53;;;;;;;;;;5054615;28;20494;-76
2021/12/09 13:37:51;;;;;;;6.35;2.47;;;;;;;;;;5070680;28;20049;-76
2021/12/09 13:48:18;;;;;;;4.63;2.75;;;;;;;;;;5072540;28;20055;-73
2021/12/09 13:50:52;;;;;;;5.28;2.58;;;;;;;;;;5072050;28;20053;-72
2021/12/09 13:56:06;;;;;;;8.40;2.67;;;;;;;;;;5070739;28;20047;-74
2021/12/09 13:58:32;;;;;;;6.40;2.63;;;;;;;;;;5071663;28;20044;-74
2021/12/09 14:00:58;;;;;;;6.72;3.03;;;;;;;;;;5071960;28;20044;-72
2021/12/09 14:03:25;;;;;;;5.85;2.92;;;;;;;;;;5071261;28;20045;-75
2021/12/09 14:06:03;;;;;;;6.93;2.28;;;;;;;;;;5070454;28;20066;-74
2021/12/09 14:08:41;;;;;;;5.80;2.55;;;;;;;;;;5071771;28;20060;-74
2021/12/09 14:11:13;;;;;;;5.38;2.33;;;;;;;;;;5071604;28;20044;-73
2021/12/09 14:13:43;;;;;;;5.85;2.53;;;;;;;;;;5070196;28;20088;-74
2021/12/09 14:16:41;;;;;;;5.60;2.67;;;;;;;;;;5070960;28;20055;-75
2021/12/09 14:21:35;;;;;;;5.75;2.40;;;;;;;;;;5071356;28;20528;-74
2021/12/09 14:24:04;;;;;;;4.75;3.00;;;;;;;;;;5071219;28;20048;-74
2021/12/09 14:26:30;;;;;;;6.68;2.40;;;;;;;;;;5053607;28;20139;-74
2021/12/09 14:29:00;;;;;;;6.20;2.28;;;;;;;;;;5070816;28;20044;-73
2021/12/09 14:31:26;;;;;;;7.47;2.88;;;;;;;;;;5052775;28;20056;-74
2021/12/09 14:33:52;;;;;;;5.47;2.40;;;;;;;;;;5069508;28;20045;-74
2021/12/09 14:36:19;;;;;;;7.43;2.50;;;;;;;;;;5070495;28;20037;-73
2021/12/09 14:38:45;;;;;;;4.65;2.70;;;;;;;;;;5070420;28;20132;-74
2021/12/09 14:41:24;;;;;;;6.68;2.63;;;;;;;;;;5069930;28;20036;-73
2021/12/09 14:43:51;;;;;;;6.25;2.58;;;;;;;;;;5070705;28;20544;-72
2021/12/09 14:46:26;;;;;;;5.22;2.75;;;;;;;;;;5070626;28;20421;-74
2021/12/09 14:48:52;;;;;;;4.00;2.55;;;;;;;;;;5069436;28;20422;-75
2021/12/09 14:51:27;;;;;;;5.88;2.47;;;;;;;;;;5069509;28;20055;-73
2021/12/09 14:54:05;;;;;;;5.75;2.80;;;;;;;;;;5070465;28;20051;-77
2021/12/09 14:56:31;;;;;;;5.47;2.50;;;;;;;;;;5064991;28;20032;-76
2021/12/09 14:59:16;;;;;;;4.93;2.75;;;;;;;;;;5070520;28;20060;-76
2021/12/09 15:01:46;;;;;;;6.25;2.75;;;;;;;;;;5070362;28;20056;-77
2021/12/09 15:04:19;;;;;;;;;;;;;;;;;;5052251;28;20551;-77
2021/12/09 15:06:54;;;;;;;4.85;2.20;;;;;;;;;;5071302;28;19931;-77
2021/12/09 15:09:20;;;;;;;6.10;2.50;;;;;;;;;;5071077;28;20084;-77
2021/12/09 15:11:54;;;;;;;5.28;2.60;;;;;;;;;;5070048;28;20132;-77
2021/12/09 15:14:26;;;;;;;5.72;2.88;;;;;;;;;;5053421;28;20059;-75
2021/12/09 15:17:03;;;;;;;4.88;2.42;;;;;;;;;;5068777;28;20402;-75
2021/12/09 15:19:29;;;;;;;5.32;2.38;;;;;;;;;;5068816;28;20085;-74
2021/12/09 15:22:06;;;;;;;5.93;2.30;;;;;;;;;;5069895;28;20513;-73
2021/12/09 15:24:32;;;;;;;6.70;2.60;;;;;;;;;;5071230;28;20093;-74
2021/12/09 15:26:58;;;;;;;5.68;2.90;;;;;;;;;;5070228;28;20106;-74
2021/12/09 15:29:24;;;;;;;6.43;3.13;;;;;;;;;;5068518;28;20456;-74
2021/12/09 15:32:01;;;;;;;7.00;2.55;;;;;;;;;;5070378;28;20525;-75
2021/12/09 15:34:37;;;;;;;6.05;2.70;;;;;;;;;;5070166;28;20429;-76
2021/12/09 15:37:06;;;;;;;5.82;2.33;;;;;;;;;;5070463;28;20049;-74
2021/12/09 15:39:33;;;;;;;6.70;3.00;;;;;;;;;;5070743;28;20507;-76
2021/12/09 15:42:02;;;;;;;3.92;2.25;;;;;;;;;;5070332;28;20036;-75
2021/12/09 15:44:28;;;;;;;7.23;2.50;;;;;;;;;;5068922;28;20041;-77
2021/12/09 15:46:54;;;;;;;5.93;2.67;;;;;;;;;;5073197;28;20293;-77